Time;durP1;ratioP1;P1;durP2;ratioP2;P2;SDS_P1;SDS_P2;PMS_P1;PMS_P2;Temp;Humidity;BMP_temperature;BMP_pressure;BME280_temperature;BME280_humidity;BME280_pressure;Samples;Min_cycle;Max_cycle;Signal;HPM_P1;HPM_P2
2023/05/17 00:02:03;;;;;;;4.20;2.00;;;;;;;2.21;100.00;96804.31;10410015;28;20355;-64
2023/05/17 00:07:03;;;;;;;5.93;1.80;;;;;;;2.09;100.00;96803.38;10410219;28;20196;-65
2023/05/17 00:12:04;;;;;;;10.10;2.20;;;;;;;2.02;100.00;96797.78;10416843;28;20215;-64
2023/05/17 00:17:04;;;;;;;10.43;2.10;;;;;;;1.99;100.00;96804.88;10417261;28;20204;-65
2023/05/17 00:22:05;;;;;;;5.60;2.10;;;;;;;1.98;100.00;96805.84;10416692;28;20223;-65
2023/05/17 00:27:05;;;;;;;4.43;1.97;;;;;;;1.89;100.00;96810.66;10416836;28;20247;-65
2023/05/17 00:32:06;;;;;;;5.70;1.90;;;;;;;1.84;100.00;96807.56;10416177;28;20209;-65
2023/05/17 00:37:06;;;;;;;4.47;2.07;;;;;;;1.82;100.00;96806.81;10416392;28;20192;-65
2023/05/17 00:42:07;;;;;;;4.67;1.97;;;;;;;1.77;100.00;96817.44;10415753;28;20221;-65
2023/05/17 00:47:07;;;;;;;5.40;2.70;;;;;;;1.67;100.00;96820.72;10415775;28;20199;-64
2023/05/17 00:52:08;;;;;;;9.07;2.03;;;;;;;1.77;100.00;96801.94;10415644;28;20240;-65
2023/05/17 00:57:09;;;;;;;4.13;1.97;;;;;;;1.81;100.00;96806.91;10415507;28;20604;-65
2023/05/17 01:02:10;;;;;;;2.73;2.07;;;;;;;1.64;100.00;96816.59;10414315;28;20271;-65
2023/05/17 01:07:11;;;;;;;4.40;1.80;;;;;;;1.65;100.00;96809.69;10413949;28;20192;-65
2023/05/17 01:12:28;;;;;;;5.03;2.23;;;;;;;1.75;100.00;96813.31;10413829;28;20208;-64
2023/05/17 01:17:50;;;;;;;10.73;2.50;;;;;;;1.70;100.00;96811.03;10397302;28;20227;-65
2023/05/17 01:23:04;;;;;;;3.73;2.03;;;;;;;1.58;100.00;96822.97;10414413;28;20636;-65
2023/05/17 01:28:05;;;;;;;7.07;1.97;;;;;;;1.60;100.00;96823.69;10414558;28;20199;-64
2023/05/17 01:33:06;;;;;;;4.60;1.93;;;;;;;1.63;100.00;96827.03;10414312;28;20205;-65
2023/05/17 01:38:06;;;;;;;8.40;2.50;;;;;;;1.47;100.00;96835.75;10414413;28;20196;-65
2023/05/17 01:43:31;;;;;;;3.57;2.00;;;;;;;1.43;100.00;96842.03;10414088;28;20223;-66
2023/05/17 01:48:36;;;;;;;6.30;2.13;;;;;;;1.49;100.00;96840.81;10401070;28;20201;-64
2023/05/17 01:53:46;;;;;;;6.03;2.63;;;;;;;1.65;100.00;96843.25;10395629;28;20236;-65
2023/05/17 01:58:47;;;;;;;5.37;2.10;;;;;;;1.48;100.00;96841.72;10413497;28;20279;-65
2023/05/17 02:03:48;;;;;;;8.53;2.87;;;;;;;1.35;100.00;96846.84;10411737;28;20309;-66
2023/05/17 02:08:49;;;;;;;7.03;2.57;;;;;;;1.33;100.00;96844.38;10411772;28;20197;-65
2023/05/17 02:13:49;;;;;;;3.23;2.10;;;;;;;1.33;100.00;96844.38;10411548;28;20674;-65
2023/05/17 02:18:50;;;;;;;4.87;2.33;;;;;;;1.33;100.00;96849.53;10411354;28;20211;-66
2023/05/17 02:23:50;;;;;;;4.53;2.40;;;;;;;1.50;100.00;96845.03;10412227;28;20285;-66
2023/05/17 02:28:52;;;;;;;6.63;2.20;;;;;;;1.52;100.00;96861.28;10410799;28;20212;-65
2023/05/17 02:33:53;;;;;;;8.20;2.50;;;;;;;1.33;100.00;96869.31;10411493;28;20569;-64
2023/05/17 02:38:53;;;;;;;5.27;2.33;;;;;;;1.28;100.00;96869.59;10411793;28;20195;-66
2023/05/17 02:43:54;;;;;;;5.77;2.50;;;;;;;1.26;100.00;96866.31;10411623;28;20244;-66
2023/05/17 02:48:54;;;;;;;6.50;2.40;;;;;;;1.29;100.00;96865.25;10389298;28;20197;-65
2023/05/17 02:53:54;;;;;;;7.60;2.13;;;;;;;1.16;100.00;96871.19;10370729;28;20185;-64
2023/05/17 02:58:56;;;;;;;7.27;2.40;;;;;;;1.17;100.00;96877.19;10370207;28;20190;-65
2023/05/17 03:03:57;;;;;;;9.17;3.37;;;;;;;0.89;100.00;96886.63;10386167;28;20601;-65
2023/05/17 03:08:57;;;;;;;25.07;9.03;;;;;;;1.02;100.00;96895.25;10409861;28;20181;-66
2023/05/17 03:13:57;;;;;;;10.70;2.53;;;;;;;1.11;100.00;96887.88;10409589;28;20579;-65
2023/05/17 03:19:00;;;;;;;23.40;7.20;;;;;;;1.15;100.00;96886.75;10409517;28;20193;-66
2023/05/17 03:24:01;;;;;;;13.90;4.00;;;;;;;1.14;100.00;96908.34;10409068;28;20216;-65
2023/05/17 03:29:02;;;;;;;27.30;11.40;;;;;;;1.08;100.00;96904.38;10409204;28;20192;-65
2023/05/17 03:34:03;;;;;;;10.83;4.37;;;;;;;1.16;100.00;96909.88;10409315;28;20212;-65
2023/05/17 03:39:04;;;;;;;9.60;3.23;;;;;;;1.11;100.00;96911.94;10409013;28;20212;-65
2023/05/17 03:44:04;;;;;;;12.63;3.53;;;;;;;1.31;100.00;96918.47;10411846;28;20701;-66
2023/05/17 03:49:06;;;;;;;7.87;3.00;;;;;;;1.46;100.00;96933.94;10416384;28;20308;-66
2023/05/17 03:54:07;;;;;;;8.83;3.07;;;;;;;1.56;100.00;96927.25;10416603;28;20680;-66
2023/05/17 03:59:08;;;;;;;13.33;3.40;;;;;;;1.87;100.00;96935.66;10416157;28;20259;-65
2023/05/17 04:04:08;;;;;;;13.07;4.17;;;;;;;2.26;100.00;96937.47;10416553;28;20264;-66
2023/05/17 04:09:11;;;;;;;12.83;3.97;;;;;;;2.70;100.00;96945.84;10416262;28;20631;-67
2023/05/17 04:14:13;;;;;;;19.40;3.77;;;;;;;3.16;100.00;96942.75;10415954;28;20204;-66
2023/05/17 04:19:13;;;;;;;18.67;5.03;;;;;;;3.66;100.00;96941.94;10417357;28;20673;-66
2023/05/17 04:24:14;;;;;;;12.70;3.87;;;;;;;3.99;100.00;96940.47;10415793;28;20299;-66
2023/05/17 04:29:14;;;;;;;20.30;4.67;;;;;;;4.33;100.00;96932.84;10415593;28;20213;-65
2023/05/17 04:34:16;;;;;;;11.70;3.60;;;;;;;4.59;100.00;96925.75;10415423;28;20188;-66
2023/05/17 04:39:17;;;;;;;13.33;4.20;;;;;;;4.85;100.00;96915.19;10415149;28;20209;-66
2023/05/17 04:44:18;;;;;;;15.13;4.87;;;;;;;5.00;100.00;96927.00;10416294;28;20217;-65
2023/05/17 04:49:19;;;;;;;13.10;3.83;;;;;;;5.13;100.00;96929.47;10414485;28;20228;-65
2023/05/17 04:54:19;;;;;;;12.50;4.60;;;;;;;5.32;100.00;96941.91;10414410;28;20226;-65
2023/05/17 04:59:20;;;;;;;15.60;4.53;;;;;;;5.35;100.00;96944.25;10414348;28;20217;-66
2023/05/17 05:04:22;;;;;;;9.80;3.60;;;;;;;5.46;100.00;96946.84;10414418;28;20216;-66
2023/05/17 05:09:23;;;;;;;12.00;4.50;;;;;;;5.44;100.00;96934.94;10414067;28;20209;-67
2023/05/17 05:14:24;;;;;;;10.67;3.80;;;;;;;5.63;100.00;96924.75;10413917;28;20208;-66
2023/05/17 05:19:24;;;;;;;10.83;3.80;;;;;;;5.83;100.00;96919.75;10413629;28;20690;-65
2023/05/17 05:24:26;;;;;;;13.60;4.27;;;;;;;6.04;100.00;96930.25;10413525;28;20288;-67
2023/05/17 05:29:26;;;;;;;12.63;4.20;;;;;;;6.15;100.00;96951.03;10413389;28;20324;-65
2023/05/17 05:34:28;;;;;;;11.93;4.03;;;;;;;6.27;100.00;96941.41;10413023;28;21041;-66
2023/05/17 05:39:28;;;;;;;15.63;4.30;;;;;;;6.38;100.00;96941.34;10412725;28;20219;-66
2023/05/17 05:44:30;;;;;;;18.20;4.30;;;;;;;6.25;100.00;96944.13;10413887;28;20307;-66
2023/05/17 05:49:31;;;;;;;18.30;4.45;;;;;;;6.45;100.00;96946.91;10435341;22;20316;-68
2023/05/17 05:54:31;;;;;;;13.03;4.83;;;;;;;6.27;100.00;96954.41;10450550;28;20636;-67
2023/05/17 05:59:32;;;;;;;20.97;5.40;;;;;;;6.46;100.00;96976.34;10469698;28;20618;-67
2023/05/17 06:04:32;;;;;;;17.07;6.23;;;;;;;6.41;100.00;96971.53;10453012;28;20238;-66
2023/05/17 06:09:33;;;;;;;18.73;5.30;;;;;;;6.51;100.00;96982.00;10453370;28;20187;-67
2023/05/17 06:14:33;;;;;;;16.77;6.10;;;;;;;6.90;100.00;96977.91;10453935;28;20239;-66
2023/05/17 06:19:33;;;;;;;13.43;4.97;;;;;;;6.93;100.00;96974.25;10453618;28;20223;-67
2023/05/17 06:24:34;;;;;;;14.70;5.63;;;;;;;6.96;100.00;96966.97;10453405;28;20224;-67
2023/05/17 06:29:35;;;;;;;15.20;4.90;;;;;;;7.50;100.00;96982.50;10453393;28;20192;-67
2023/05/17 06:34:35;;;;;;;13.27;4.07;;;;;;;7.41;100.00;96981.53;10453060;28;20196;-67
2023/05/17 06:39:35;;;;;;;21.90;5.23;;;;;;;7.62;100.00;96983.25;10453123;28;20697;-67
2023/05/17 06:44:36;;;;;;;12.97;4.40;;;;;;;7.67;100.00;96981.91;10452643;28;20721;-67
2023/05/17 06:49:36;;;;;;;13.87;4.30;;;;;;;7.74;100.00;96983.97;10452154;28;20670;-67
2023/05/17 06:54:37;;;;;;;23.33;5.57;;;;;;;7.79;100.00;96985.22;10452824;28;20234;-67
2023/05/17 06:59:37;;;;;;;13.17;4.60;;;;;;;7.83;100.00;96998.84;10452435;28;20191;-67
2023/05/17 07:04:38;;;;;;;12.13;4.40;;;;;;;7.62;100.00;96994.47;10452663;28;20302;-67
2023/05/17 07:09:38;;;;;;;12.70;4.50;;;;;;;8.05;100.00;96992.56;10452076;28;20645;-67
2023/05/17 07:14:39;;;;;;;18.87;4.97;;;;;;;8.28;100.00;96987.13;10452621;28;20597;-67
2023/05/17 07:19:39;;;;;;;15.03;4.40;;;;;;;8.55;100.00;96978.66;10457602;28;20278;-67
2023/05/17 07:24:40;;;;;;;15.43;4.40;;;;;;;8.85;96.22;96966.41;10460549;28;20224;-67
2023/05/17 07:29:41;;;;;;;12.17;4.20;;;;;;;8.96;92.41;96955.81;10460233;28;20219;-67
2023/05/17 07:34:41;;;;;;;12.17;4.50;;;;;;;8.99;91.83;96960.75;10460111;28;20199;-67
2023/05/17 07:39:41;;;;;;;21.00;5.40;;;;;;;8.68;91.72;96960.09;10460056;28;20232;-67
2023/05/17 07:44:42;;;;;;;18.20;5.00;;;;;;;8.44;93.69;96984.00;10459479;28;20222;-66
2023/05/17 07:49:42;;;;;;;14.97;4.30;;;;;;;8.83;92.15;96974.38;10459033;28;20907;-68
2023/05/17 07:54:42;;;;;;;10.47;3.83;;;;;;;9.45;86.92;96945.22;10459386;28;20603;-68
2023/05/17 07:59:43;;;;;;;19.83;4.50;;;;;;;9.10;85.50;96947.53;10459185;28;20224;-68
2023/05/17 08:04:44;;;;;;;15.57;3.60;;;;;;;9.32;84.26;96932.47;10458768;28;20293;-67
2023/05/17 08:09:44;;;;;;;22.70;3.83;;;;;;;10.02;80.55;96918.09;10458297;28;20216;-68
2023/05/17 08:14:44;;;;;;;11.73;3.67;;;;;;;9.70;78.73;96898.44;10458582;28;20261;-68
2023/05/17 08:19:45;;;;;;;11.70;3.87;;;;;;;9.99;78.75;96921.81;10458141;28;20224;-68
2023/05/17 08:24:45;;;;;;;9.30;3.50;;;;;;;10.21;76.21;96896.19;10458186;28;20254;-68
2023/05/17 08:29:46;;;;;;;12.63;3.30;;;;;;;9.82;75.63;96892.84;10457075;28;20215;-68
2023/05/17 08:34:46;;;;;;;14.67;3.30;;;;;;;10.47;75.79;96902.31;10457942;28;20229;-67
2023/05/17 08:39:48;;;;;;;11.07;3.08;;;;;;;10.76;72.12;96855.88;10457355;28;20247;-68
2023/05/17 08:44:48;;;;;;;11.35;3.50;;;;;;;9.92;74.43;96902.44;10457240;28;20609;-68
2023/05/17 08:49:49;;;;;;;10.57;3.70;;;;;;;9.88;72.49;96873.13;10457119;28;20240;-68
2023/05/17 08:54:49;;;;;;;13.83;3.60;;;;;;;9.59;74.45;96907.31;10457081;28;20546;-68
2023/05/17 08:59:50;;;;;;;12.20;3.23;;;;;;;10.07;73.45;96898.34;10456899;28;20612;-68
2023/05/17 09:04:54;;;;;;;6.37;3.03;;;;;;;10.89;71.78;96883.31;10455203;28;20216;-67
2023/05/17 09:09:54;;;;;;;13.27;3.72;;;;;;;10.52;73.16;96889.63;10455256;28;20311;-68
2023/05/17 09:15:11;;;;;;;11.88;3.95;;;;;;;10.85;72.35;96889.84;10456415;28;20263;-70
2023/05/17 09:20:11;;;;;;;15.77;3.58;;;;;;;9.87;73.52;96902.06;10456580;28;20270;-68
2023/05/17 09:25:11;;;;;;;12.90;3.60;;;;;;;9.80;75.32;96923.59;10455953;28;20245;-68
2023/05/17 09:30:12;;;;;;;15.13;3.80;;;;;;;9.37;78.02;96984.31;10455718;28;20776;-67
2023/05/17 09:35:12;;;;;;;13.23;3.80;;;;;;;9.00;79.73;96996.38;10454756;28;20607;-67
2023/05/17 09:40:25;;;;;;;13.53;3.70;;;;;;;8.72;81.79;97030.22;10454429;28;20269;-67
2023/05/17 09:45:25;;;;;;;12.97;4.87;;;;;;;9.00;84.07;97042.59;10455207;28;20200;-67
2023/05/17 09:50:26;;;;;;;10.13;3.90;;;;;;;9.66;81.88;97013.00;10454275;28;20227;-67
2023/05/17 09:55:27;;;;;;;9.80;3.90;;;;;;;10.22;74.59;96927.44;10454834;28;20681;-67
2023/05/17 10:00:31;;;;;;;12.90;3.17;;;;;;;10.24;73.53;96929.91;10454297;28;20218;-67
2023/05/17 10:05:31;;;;;;;13.40;3.83;;;;;;;10.32;74.42;96950.94;10454136;28;20673;-67
2023/05/17 10:10:32;;;;;;;9.88;3.67;;;;;;;10.75;74.88;96966.91;10454063;28;20208;-68
2023/05/17 10:15:32;;;;;;;7.63;3.20;;;;;;;11.10;68.57;96886.56;10453631;28;20211;-68
2023/05/17 10:20:33;;;;;;;14.50;3.80;;;;;;;11.36;67.53;96882.09;10453845;28;20212;-67
2023/05/17 10:25:33;;;;;;;15.15;3.40;;;;;;;11.78;64.48;96848.97;10453208;28;20657;-69
2023/05/17 10:30:34;;;;;;;13.25;3.92;;;;;;;11.35;65.57;96867.34;10452131;28;20238;-68
2023/05/17 10:35:35;;;;;;;10.25;3.45;;;;;;;11.16;66.39;96899.84;10453398;28;20207;-68
2023/05/17 10:40:35;;;;;;;13.35;3.50;;;;;;;10.74;67.53;96910.25;10452619;28;20215;-68
2023/05/17 10:45:36;;;;;;;12.93;4.00;;;;;;;11.10;66.70;96905.72;10453171;28;20555;-67
2023/05/17 10:50:38;;;;;;;12.25;3.30;;;;;;;11.84;64.62;96868.47;10451006;28;20693;-68
2023/05/17 10:55:41;;;;;;;7.78;3.20;;;;;;;11.65;61.73;96825.78;10452588;28;20238;-69
2023/05/17 11:00:53;;;;;;;9.27;3.67;;;;;;;11.96;60.74;96814.72;10452566;28;20214;-68
2023/05/17 11:06:09;;;;;;;12.05;2.90;;;;;;;12.37;56.03;96742.97;10452402;28;20237;-68
2023/05/17 11:11:17;;;;;;;8.75;2.90;;;;;;;12.09;57.27;96757.28;10450987;28;20242;-68
2023/05/17 11:16:20;;;;;;;10.63;2.85;;;;;;;12.90;57.62;96798.56;10452184;28;20199;-68
2023/05/17 11:21:21;;;;;;;13.80;3.00;;;;;;;12.55;58.16;96805.84;10452196;28;20690;-68
2023/05/17 11:26:26;;;;;;;10.55;2.97;;;;;;;12.67;57.43;96791.38;10451875;28;20200;-68
2023/05/17 11:31:35;;;;;;;11.80;2.80;;;;;;;14.70;52.34;96735.97;10450799;28;20265;-67
2023/05/17 11:36:52;;;;;;;8.15;2.70;;;;;;;15.30;48.95;96676.00;10459470;28;20192;-67
2023/05/17 11:41:54;;;;;;;12.85;2.92;;;;;;;15.13;49.52;96679.88;10458329;28;20269;-68
2023/05/17 11:47:04;;;;;;;10.43;2.97;;;;;;;15.18;50.87;96734.75;10451642;28;20192;-68
2023/05/17 11:52:05;;;;;;;13.68;2.80;;;;;;;14.84;52.40;96763.34;10473534;22;20621;-68
2023/05/17 11:57:07;;;;;;;9.50;2.65;;;;;;;15.97;48.23;96699.59;10450181;28;20214;-67
2023/05/17 12:02:08;;;;;;;9.75;2.95;;;;;;;15.95;48.88;96725.41;10450388;28;20216;-68
2023/05/17 12:07:09;;;;;;;8.20;2.58;;;;;;;15.28;50.98;96754.56;10457781;28;20685;-67
2023/05/17 12:12:09;;;;;;;7.20;2.55;;;;;;;16.28;46.30;96675.47;10459201;28;20208;-67
2023/05/17 12:17:12;;;;;;;12.07;3.00;;;;;;;17.50;44.39;96673.13;10458643;28;20192;-67
2023/05/17 12:22:12;;;;;;;13.93;2.75;;;;;;;17.64;42.38;96634.22;10462222;28;20216;-69
2023/05/17 12:27:13;;;;;;;9.70;2.58;;;;;;;16.47;44.57;96658.06;10465232;28;20211;-69
2023/05/17 12:32:13;;;;;;;12.15;2.60;;;;;;;16.17;44.39;96660.13;10468409;28;20616;-68
2023/05/17 12:37:14;;;;;;;7.97;2.47;;;;;;;16.63;43.46;96658.75;10461706;28;20195;-68
2023/05/17 12:42:14;;;;;;;7.70;2.60;;;;;;;16.80;44.05;96677.75;10456026;28;20223;-67
2023/05/17 12:47:15;;;;;;;8.82;2.38;;;;;;;16.63;43.71;96674.63;10457401;28;20275;-68
2023/05/17 12:52:16;;;;;;;11.00;2.40;;;;;;;16.35;45.94;96739.75;10456577;28;20599;-68
2023/05/17 12:57:17;;;;;;;11.45;2.30;;;;;;;15.87;47.07;96747.50;10456950;28;20192;-68
2023/05/17 13:02:19;;;;;;;4.80;2.00;;;;;;;15.11;47.09;96716.19;10456411;28;20215;-68
2023/05/17 13:07:23;;;;;;;7.72;2.13;;;;;;;15.74;47.05;96745.50;10456226;28;20592;-67
2023/05/17 13:12:23;;;;;;;7.35;2.60;;;;;;;16.85;44.26;96709.75;10456468;28;20224;-67
2023/05/17 13:17:26;;;;;;;8.20;2.33;;;;;;;17.93;40.65;96656.06;10455744;28;20203;-68
2023/05/17 13:22:26;;;;;;;7.22;2.13;;;;;;;18.95;41.07;96709.56;10455576;28;20311;-68
2023/05/17 13:27:27;;;;;;;11.95;2.30;;;;;;;18.20;42.29;96714.38;10455902;28;20311;-68
2023/05/17 13:32:28;;;;;;;9.95;2.58;;;;;;;17.20;42.56;96683.25;10455172;28;20211;-68
2023/05/17 13:37:28;;;;;;;7.03;2.50;;;;;;;16.71;44.46;96730.84;10455580;28;20184;-67
2023/05/17 13:42:29;;;;;;;5.43;2.22;;;;;;;17.21;44.72;96766.94;10454945;28;20212;-67
2023/05/17 13:47:30;;;;;;;6.82;2.25;;;;;;;18.44;42.75;96745.59;10455393;28;20210;-67
2023/05/17 13:52:31;;;;;;;13.18;2.75;;;;;;;17.36;43.43;96742.97;10454238;28;20610;-67
2023/05/17 13:57:31;;;;;;;6.45;1.92;;;;;;;15.10;49.39;96809.53;10454599;28;20188;-68
2023/05/17 14:02:31;;;;;;;11.35;2.50;;;;;;;15.12;49.86;96839.22;10454135;28;20257;-66
2023/05/17 14:07:32;;;;;;;6.32;2.40;;;;;;;17.11;42.90;96723.13;10454035;28;20204;-66
2023/05/17 14:12:32;;;;;;;11.82;2.78;;;;;;;19.26;38.71;96681.44;10453981;28;20218;-69
2023/05/17 14:17:32;;;;;;;8.25;2.45;;;;;;;18.21;41.18;96721.31;10453393;28;20749;-68
2023/05/17 14:22:33;;;;;;;10.20;2.58;;;;;;;17.03;42.63;96712.72;10451226;28;20755;-68
2023/05/17 14:27:33;;;;;;;9.32;3.03;;;;;;;15.17;47.04;96768.22;10451745;28;20670;-68
2023/05/17 14:32:35;;;;;;;8.52;2.53;;;;;;;14.93;48.44;96808.91;10453169;28;20717;-69
2023/05/17 14:37:35;;;;;;;7.70;2.45;;;;;;;17.44;42.67;96756.84;10451597;28;20191;-67
2023/05/17 14:42:36;;;;;;;8.57;2.45;;;;;;;19.41;39.64;96745.72;10452610;28;20216;-68
2023/05/17 14:47:36;;;;;;;7.90;2.30;;;;;;;21.73;34.87;96679.06;10452776;28;20260;-67
2023/05/17 14:52:36;;;;;;;10.02;2.67;;;;;;;22.81;33.12;96672.72;10452094;28;20235;-68
2023/05/17 14:57:38;;;;;;;7.47;2.65;;;;;;;20.21;36.63;96667.28;10452602;28;20204;-68
2023/05/17 15:02:39;;;;;;;6.28;2.38;;;;;;;17.70;40.33;96691.69;10452036;28;20223;-69
2023/05/17 15:07:39;;;;;;;7.38;2.50;;;;;;;16.00;45.10;96787.25;10452388;28;20553;-67
2023/05/17 15:12:39;;;;;;;6.93;2.33;;;;;;;17.60;42.00;96754.88;10451873;28;20302;-68
2023/05/17 15:17:40;;;;;;;7.88;2.55;;;;;;;16.80;42.81;96746.53;10451772;28;20226;-68
2023/05/17 15:22:41;;;;;;;11.98;2.97;;;;;;;17.28;41.19;96715.63;10452104;28;20227;-68
2023/05/17 15:27:41;;;;;;;8.50;2.58;;;;;;;16.05;43.64;96742.56;10451682;28;20670;-69
2023/05/17 15:32:41;;;;;;;7.65;2.40;;;;;;;16.76;43.04;96756.72;10451898;28;20207;-68
2023/05/17 15:37:42;;;;;;;8.20;2.55;;;;;;;17.65;41.14;96739.16;10452039;28;20212;-68
2023/05/17 15:42:42;;;;;;;7.78;2.35;;;;;;;19.26;38.82;96718.63;10459326;28;20228;-69
2023/05/17 15:47:42;;;;;;;6.00;2.50;;;;;;;19.42;37.83;96696.91;10459508;28;20242;-69
2023/05/17 15:52:43;;;;;;;11.57;2.53;;;;;;;18.25;38.87;96683.56;10458905;28;20296;-68
2023/05/17 15:57:43;;;;;;;7.38;2.38;;;;;;;15.88;43.61;96733.28;10459243;28;20199;-68
2023/05/17 16:02:43;;;;;;;7.88;2.42;;;;;;;15.91;43.68;96732.91;10458633;28;20226;-67
2023/05/17 16:07:45;;;;;;;8.68;2.30;;;;;;;15.94;43.09;96716.69;10458743;28;20231;-68
2023/05/17 16:12:46;;;;;;;12.13;2.75;;;;;;;15.16;45.87;96777.16;10458690;28;20660;-68
2023/05/17 16:17:50;;;;;;;8.88;2.58;;;;;;;14.71;47.32;96798.25;10458509;28;20200;-68
2023/05/17 16:22:52;;;;;;;7.00;1.95;;;;;;;14.36;47.08;96791.81;10458012;28;20668;-68
2023/05/17 16:27:52;;;;;;;8.40;2.42;;;;;;;13.83;47.80;96791.72;10457843;28;20188;-67
2023/05/17 16:32:53;;;;;;;11.27;2.70;;;;;;;13.67;48.98;96814.50;10457450;28;20227;-67
2023/05/17 16:37:53;;;;;;;10.57;2.38;;;;;;;13.19;49.30;96814.53;10457389;28;20230;-67
2023/05/17 16:42:53;;;;;;;10.95;2.33;;;;;;;13.13;49.65;96831.00;10457273;28;20226;-67
2023/05/17 16:47:54;;;;;;;7.15;2.03;;;;;;;13.54;48.38;96827.44;10457120;28;20204;-67
2023/05/17 16:52:54;;;;;;;10.32;2.13;;;;;;;13.09;48.70;96808.66;10456498;28;20251;-67
2023/05/17 16:57:55;;;;;;;13.23;2.03;;;;;;;13.74;48.57;96838.34;10457177;28;20261;-67
2023/05/17 17:02:56;;;;;;;11.85;2.20;;;;;;;13.27;48.18;96813.69;10456647;28;20218;-66
2023/05/17 17:07:57;;;;;;;14.75;2.50;;;;;;;13.04;49.20;96839.91;10457106;28;20227;-67
2023/05/17 17:12:57;;;;;;;10.05;2.53;;;;;;;13.25;49.80;96878.81;10456706;28;20222;-66
2023/05/17 17:17:57;;;;;;;7.60;2.53;;;;;;;12.90;49.37;96849.31;10456679;28;20248;-67
2023/05/17 17:22:58;;;;;;;8.77;2.40;;;;;;;12.40;50.48;96864.31;10456027;28;20227;-67
2023/05/17 17:27:58;;;;;;;7.30;2.42;;;;;;;12.95;49.44;96856.72;10456233;28;20208;-66
2023/05/17 17:32:59;;;;;;;10.77;2.35;;;;;;;12.47;49.70;96853.97;10455859;28;20231;-67
2023/05/17 17:38:00;;;;;;;9.95;2.45;;;;;;;12.09;50.12;96864.94;10455595;28;20242;-66
2023/05/17 17:43:01;;;;;;;11.40;2.42;;;;;;;12.03;50.48;96862.16;10455368;28;20220;-67
2023/05/17 17:48:01;;;;;;;8.02;2.03;;;;;;;12.08;50.83;96881.69;10455268;28;20572;-66
2023/05/17 17:53:01;;;;;;;10.30;2.40;;;;;;;12.36;50.88;96889.28;10434880;22;20659;-65
2023/05/17 17:58:02;;;;;;;9.90;2.70;;;;;;;12.26;51.80;96923.56;10371595;28;20575;-65
2023/05/17 18:03:02;;;;;;;9.50;2.53;;;;;;;11.88;51.89;96914.44;10371558;28;20306;-67
2023/05/17 18:08:03;;;;;;;13.77;3.13;;;;;;;11.68;52.57;96933.06;10372611;28;20201;-66
2023/05/17 18:13:03;;;;;;;12.13;2.63;;;;;;;11.52;53.85;96949.56;10371588;28;20703;-66
2023/05/17 18:18:04;;;;;;;11.63;2.60;;;;;;;11.31;54.63;96957.81;10371497;28;20193;-66
2023/05/17 18:23:04;;;;;;;12.38;2.20;;;;;;;11.24;54.89;96962.03;10370775;28;20667;-66
2023/05/17 18:28:05;;;;;;;9.80;2.38;;;;;;;11.06;55.73;96975.19;10371117;28;20267;-66
2023/05/17 18:33:06;;;;;;;9.07;2.65;;;;;;;10.83;56.50;96987.94;10370488;28;20217;-66
2023/05/17 18:38:06;;;;;;;8.55;2.40;;;;;;;10.68;56.83;97003.38;10370803;28;20221;-66
2023/05/17 18:43:06;;;;;;;10.63;2.08;;;;;;;10.48;57.77;97018.41;10370273;28;20323;-66
2023/05/17 18:48:07;;;;;;;10.70;2.17;;;;;;;10.29;58.25;97021.94;10370025;28;20197;-65
2023/05/17 18:53:07;;;;;;;11.33;2.40;;;;;;;10.14;57.17;97016.38;10370219;28;20260;-65
2023/05/17 18:58:08;;;;;;;11.00;2.70;;;;;;;9.85;59.07;97058.38;10370087;28;20208;-66
2023/05/17 19:03:08;;;;;;;10.52;2.30;;;;;;;9.28;62.51;97104.47;10369838;28;20220;-66
2023/05/17 19:08:08;;;;;;;16.10;3.37;;;;;;;9.19;62.78;97100.09;10369689;28;20212;-66
2023/05/17 19:13:09;;;;;;;13.63;4.23;;;;;;;9.18;64.30;97134.19;10369565;28;20331;-65
2023/05/17 19:18:10;;;;;;;18.93;4.07;;;;;;;8.81;66.36;97174.84;10369553;28;20532;-66
2023/05/17 19:23:10;;;;;;;12.00;3.10;;;;;;;8.30;69.29;97201.84;10369294;28;20307;-65
2023/05/17 19:28:10;;;;;;;11.90;2.80;;;;;;;8.25;69.93;97197.00;10369532;28;20200;-65
2023/05/17 19:33:11;;;;;;;10.17;2.40;;;;;;;8.05;72.10;97214.34;10368892;28;20244;-65
2023/05/17 19:38:11;;;;;;;9.70;3.07;;;;;;;7.42;74.86;97222.94;10369672;28;20226;-66
2023/05/17 19:43:11;;;;;;;9.67;2.63;;;;;;;7.44;75.64;97220.22;10368657;28;20328;-66
2023/05/17 19:48:12;;;;;;;8.10;2.07;;;;;;;7.45;77.26;97225.31;10369219;28;20198;-66
2023/05/17 19:53:12;;;;;;;12.30;2.67;;;;;;;7.19;79.14;97237.00;10368566;28;20262;-65
2023/05/17 19:58:12;;;;;;;14.33;2.97;;;;;;;6.85;80.65;97235.28;10369328;28;20300;-66
2023/05/17 20:03:13;;;;;;;10.67;2.90;;;;;;;6.85;81.14;97247.50;10369140;28;20229;-65
2023/05/17 20:08:13;;;;;;;11.03;3.80;;;;;;;6.75;83.23;97245.59;10368961;28;20211;-65
2023/05/17 20:13:14;;;;;;;16.30;3.93;;;;;;;6.63;85.21;97256.97;10369138;28;20237;-65
2023/05/17 20:18:15;;;;;;;10.23;3.23;;;;;;;6.39;86.18;97252.69;10369098;28;20197;-65
2023/05/17 20:23:15;;;;;;;11.80;3.10;;;;;;;6.29;88.00;97267.34;10368910;28;20213;-65
2023/05/17 20:28:16;;;;;;;10.97;3.13;;;;;;;6.09;90.10;97273.22;10374316;28;20201;-65
2023/05/17 20:33:20;;;;;;;11.97;3.60;;;;;;;6.01;90.80;97284.19;10375629;28;20213;-66
2023/05/17 20:38:20;;;;;;;9.73;3.07;;;;;;;5.92;91.08;97287.44;10375995;28;20197;-66
2023/05/17 20:43:27;;;;;;;12.00;3.13;;;;;;;5.90;91.95;97288.38;10375253;28;20707;-66
2023/05/17 20:48:27;;;;;;;12.93;3.47;;;;;;;5.79;93.72;97290.09;10375600;28;20197;-65
2023/05/17 20:53:28;;;;;;;9.17;3.00;;;;;;;5.77;94.49;97287.59;10375245;28;20271;-66
2023/05/17 20:58:29;;;;;;;7.80;3.10;;;;;;;5.69;95.57;97293.38;10375010;28;20663;-66
2023/05/17 21:03:32;;;;;;;13.10;3.20;;;;;;;5.72;95.39;97294.91;10374655;28;20316;-66
2023/05/17 21:08:32;;;;;;;9.00;2.40;;;;;;;5.60;95.62;97298.41;10374294;28;20200;-65
2023/05/17 21:13:33;;;;;;;9.77;3.03;;;;;;;5.53;95.42;97298.03;10374579;28;20209;-66
2023/05/17 21:18:33;;;;;;;8.13;2.80;;;;;;;5.43;96.84;97307.41;10374097;28;20197;-66
2023/05/17 21:23:34;;;;;;;12.47;3.37;;;;;;;5.36;97.30;97318.25;10373860;28;20236;-65
2023/05/17 21:28:34;;;;;;;12.60;2.83;;;;;;;5.30;98.30;97321.28;10374651;28;20205;-65
2023/05/17 21:33:34;;;;;;;13.73;3.07;;;;;;;5.25;98.34;97312.97;10373610;28;20241;-65
2023/05/17 21:38:35;;;;;;;12.83;3.27;;;;;;;5.13;99.03;97314.69;10373464;28;20238;-66
2023/05/17 21:43:35;;;;;;;9.90;2.70;;;;;;;5.10;99.83;97321.84;10373057;28;20287;-65
2023/05/17 21:48:35;;;;;;;8.80;3.60;;;;;;;5.03;99.94;97325.81;10373218;28;20276;-65
2023/05/17 21:53:36;;;;;;;12.43;3.47;;;;;;;4.94;100.00;97328.09;10372399;28;20237;-65
2023/05/17 21:58:36;;;;;;;7.33;2.87;;;;;;;4.94;100.00;97319.50;10372667;28;20251;-65
2023/05/17 22:03:36;;;;;;;13.27;2.67;;;;;;;4.84;100.00;97319.31;10372249;28;20217;-65
2023/05/17 22:08:37;;;;;;;6.30;2.70;;;;;;;4.73;100.00;97326.97;10372328;28;20212;-65
2023/05/17 22:13:37;;;;;;;10.73;2.57;;;;;;;4.69;100.00;97330.75;10372232;28;20252;-65
2023/05/17 22:18:38;;;;;;;16.73;3.50;;;;;;;4.54;100.00;97335.19;10371919;28;20655;-65
2023/05/17 22:23:40;;;;;;;7.17;2.47;;;;;;;4.49;100.00;97327.72;10371849;28;20681;-65
2023/05/17 22:28:41;;;;;;;12.50;2.70;;;;;;;4.46;100.00;97330.53;10371678;28;20197;-65
2023/05/17 22:33:41;;;;;;;11.17;3.03;;;;;;;4.38;100.00;97340.56;10371609;28;20587;-65
2023/05/17 22:38:42;;;;;;;6.63;2.30;;;;;;;4.33;100.00;97340.06;10371403;28;20579;-66
2023/05/17 22:43:42;;;;;;;9.23;2.70;;;;;;;4.31;100.00;97345.34;10370682;28;20761;-65
2023/05/17 22:48:43;;;;;;;8.30;2.93;;;;;;;4.21;100.00;97339.09;10370696;28;20232;-65
2023/05/17 22:53:43;;;;;;;6.07;2.50;;;;;;;4.05;100.00;97340.09;10370370;28;20229;-65
2023/05/17 22:58:43;;;;;;;10.50;2.80;;;;;;;3.99;100.00;97344.88;10370807;28;20197;-65
2023/05/17 23:03:44;;;;;;;11.37;2.87;;;;;;;3.89;100.00;97348.06;10370206;28;20316;-65
2023/05/17 23:08:44;;;;;;;16.60;2.97;;;;;;;3.88;100.00;97350.75;10370328;28;20200;-65
2023/05/17 23:13:45;;;;;;;12.73;3.10;;;;;;;3.90;100.00;97354.06;10370102;28;20339;-65